Time;durP1;ratioP1;P1;durP2;ratioP2;P2;SDS_P1;SDS_P2;PMS_P1;PMS_P2;Temp;Humidity;BMP_temperature;BMP_pressure;BME280_temperature;BME280_humidity;BME280_pressure;Samples;Min_cycle;Max_cycle;Signal;HPM_P1;HPM_P2
2021/11/04 00:02:08;;;;;;;39.17;35.27;;;;;;;;;;5034917;28;20926;-85
2021/11/04 00:04:36;;;;;;;35.20;32.00;;;;;;;;;;5034819;28;20461;-85
2021/11/04 00:07:06;;;;;;;37.20;33.50;;;;;;;;;;5035294;28;20438;-86
2021/11/04 00:09:33;;;;;;;36.70;33.27;;;;;;;;;;5035511;28;20486;-86
2021/11/04 00:12:02;;;;;;;39.07;34.87;;;;;;;;;;5035206;28;20470;-86
2021/11/04 00:14:29;;;;;;;39.42;35.47;;;;;;;;;;5034864;28;20417;-86
2021/11/04 00:16:57;;;;;;;41.17;36.80;;;;;;;;;;5034904;28;20217;-86
2021/11/04 00:19:24;;;;;;;37.90;33.97;;;;;;;;;;5034899;28;20513;-85
2021/11/04 00:21:52;;;;;;;39.27;35.07;;;;;;;;;;5034903;28;20438;-86
2021/11/04 00:24:19;;;;;;;41.40;36.90;;;;;;;;;;5034720;28;20833;-85
2021/11/04 00:26:47;;;;;;;40.07;35.90;;;;;;;;;;5034425;28;20422;-85
2021/11/04 00:29:16;;;;;;;42.90;37.30;;;;;;;;;;5034722;28;20449;-85
2021/11/04 00:31:43;;;;;;;41.57;36.83;;;;;;;;;;5016953;28;20548;-86
2021/11/04 00:34:11;;;;;;;41.67;37.17;;;;;;;;;;5034412;28;20480;-86
2021/11/04 00:36:38;;;;;;;38.33;33.97;;;;;;;;;;5034318;28;20421;-86
2021/11/04 00:39:06;;;;;;;41.80;36.20;;;;;;;;;;5034459;28;20414;-86
2021/11/04 00:41:33;;;;;;;42.47;34.80;;;;;;;;;;5034372;28;20409;-86
2021/11/04 00:44:02;;;;;;;37.85;33.75;;;;;;;;;;5034582;28;20429;-86
2021/11/04 00:46:32;;;;;;;38.40;34.50;;;;;;;;;;5034353;28;20207;-86
2021/11/04 00:48:59;;;;;;;40.53;36.20;;;;;;;;;;5034097;28;20440;-86
2021/11/04 00:51:27;;;;;;;39.73;34.23;;;;;;;;;;5034371;28;20490;-86
2021/11/04 00:53:54;;;;;;;37.20;33.40;;;;;;;;;;5033505;28;20433;-84
2021/11/04 00:56:21;;;;;;;35.87;32.20;;;;;;;;;;5033873;28;20462;-86
2021/11/04 00:58:49;;;;;;;43.70;34.87;;;;;;;;;;5034104;28;20455;-86
2021/11/04 01:01:17;;;;;;;40.40;36.00;;;;;;;;;;5034083;28;20433;-85
2021/11/04 01:03:46;;;;;;;38.03;33.90;;;;;;;;;;5033757;28;20460;-85
2021/11/04 01:06:13;;;;;;;35.10;31.17;;;;;;;;;;5033954;28;20413;-86
2021/11/04 01:08:41;;;;;;;37.87;33.83;;;;;;;;;;5033751;28;20406;-86
2021/11/04 01:11:09;;;;;;;37.40;33.30;;;;;;;;;;5016211;28;20886;-85
2021/11/04 01:13:37;;;;;;;36.07;32.40;;;;;;;;;;5034069;28;21048;-86
2021/11/04 01:16:04;;;;;;;37.20;33.20;;;;;;;;;;5033563;28;20406;-86
2021/11/04 01:18:32;;;;;;;36.40;31.83;;;;;;;;;;5033920;28;20420;-85
2021/11/04 01:21:01;;;;;;;35.80;32.40;;;;;;;;;;5033686;28;20414;-86
2021/11/04 01:23:28;;;;;;;40.13;34.83;;;;;;;;;;5016173;28;20504;-86
2021/11/04 01:25:56;;;;;;;36.07;32.50;;;;;;;;;;5033960;28;20825;-85
2021/11/04 01:28:23;;;;;;;36.70;32.90;;;;;;;;;;5033434;28;20425;-86
2021/11/04 01:30:50;;;;;;;36.95;33.15;;;;;;;;;;5033557;28;20446;-86
2021/11/04 01:33:18;;;;;;;35.67;31.90;;;;;;;;;;5016049;28;20342;-86
2021/11/04 01:35:45;;;;;;;36.50;32.90;;;;;;;;;;5033367;28;20498;-85
2021/11/04 01:38:15;;;;;;;33.40;30.03;;;;;;;;;;5015808;28;20454;-86
2021/11/04 01:40:43;;;;;;;34.00;30.80;;;;;;;;;;5033740;28;20443;-83
2021/11/04 01:43:10;;;;;;;33.77;30.50;;;;;;;;;;5033368;28;20410;-83
2021/11/04 01:45:38;;;;;;;34.47;31.17;;;;;;;;;;5033418;28;20443;-83
2021/11/04 01:48:06;;;;;;;33.00;30.13;;;;;;;;;;5033514;28;20445;-84
2021/11/04 01:50:34;;;;;;;31.43;28.83;;;;;;;;;;5033443;28;20431;-84
2021/11/04 01:53:01;;;;;;;31.93;29.10;;;;;;;;;;5032982;28;20497;-86
2021/11/04 01:55:30;;;;;;;32.10;29.00;;;;;;;;;;5033147;28;20433;-85
2021/11/04 01:57:58;;;;;;;31.33;28.53;;;;;;;;;;5033282;28;20469;-86
2021/11/04 02:00:27;;;;;;;32.90;29.53;;;;;;;;;;5015731;28;20491;-86
2021/11/04 02:02:57;;;;;;;31.80;28.80;;;;;;;;;;5032962;28;20460;-85
2021/11/04 02:05:27;;;;;;;29.60;27.03;;;;;;;;;;5033944;28;20409;-85
2021/11/04 02:08:00;;;;;;;29.37;26.83;;;;;;;;;;5037003;28;20454;-86
2021/11/04 02:10:30;;;;;;;29.50;26.90;;;;;;;;;;5019429;28;20429;-86
2021/11/04 02:13:03;;;;;;;32.47;29.30;;;;;;;;;;5036869;28;20552;-85
2021/11/04 02:15:31;;;;;;;30.70;27.90;;;;;;;;;;5036953;28;20416;-85
2021/11/04 02:17:59;;;;;;;30.67;27.50;;;;;;;;;;5037181;28;20463;-85
2021/11/04 02:20:30;;;;;;;31.10;28.07;;;;;;;;;;5037085;28;20429;-85
2021/11/04 02:23:01;;;;;;;36.27;32.43;;;;;;;;;;5036895;28;20767;-86
2021/11/04 02:25:31;;;;;;;32.63;29.47;;;;;;;;;;5036974;28;20420;-85
2021/11/04 02:27:59;;;;;;;30.07;27.37;;;;;;;;;;5019125;28;20483;-85
2021/11/04 02:30:28;;;;;;;29.10;26.60;;;;;;;;;;5036902;28;20929;-86
2021/11/04 02:32:55;;;;;;;30.50;28.03;;;;;;;;;;5036535;28;20452;-86
2021/11/04 02:35:23;;;;;;;28.73;26.43;;;;;;;;;;5036984;28;20454;-86
2021/11/04 02:37:52;;;;;;;29.13;26.87;;;;;;;;;;5036892;28;20464;-86
2021/11/04 02:40:21;;;;;;;33.67;28.20;;;;;;;;;;5018840;28;20455;-85
2021/11/04 02:42:51;;;;;;;29.30;26.90;;;;;;;;;;5036468;28;20455;-85
2021/11/04 02:45:20;;;;;;;27.70;25.40;;;;;;;;;;5036540;28;20467;-86
2021/11/04 02:47:48;;;;;;;26.23;24.33;;;;;;;;;;5036314;28;20460;-85
2021/11/04 02:50:16;;;;;;;26.30;24.30;;;;;;;;;;5036479;28;20883;-85
2021/11/04 02:52:43;;;;;;;26.33;24.43;;;;;;;;;;5036229;28;20535;-86
2021/11/04 02:55:11;;;;;;;26.20;24.33;;;;;;;;;;5036745;28;20424;-86
2021/11/04 02:57:45;;;;;;;25.13;23.33;;;;;;;;;;5035982;28;20450;-85
2021/11/04 03:00:16;;;;;;;24.90;23.00;;;;;;;;;;5036036;28;20409;-85
2021/11/04 03:02:43;;;;;;;25.70;23.80;;;;;;;;;;5036147;28;20486;-85
2021/11/04 03:05:10;;;;;;;26.20;24.20;;;;;;;;;;5036483;28;20438;-86
2021/11/04 03:07:38;;;;;;;25.87;23.77;;;;;;;;;;5036359;28;20437;-86
2021/11/04 03:10:06;;;;;;;26.50;24.47;;;;;;;;;;5036463;28;20414;-86
2021/11/04 03:12:33;;;;;;;22.80;21.20;;;;;;;;;;5018279;28;20497;-86
2021/11/04 03:15:01;;;;;;;27.20;25.20;;;;;;;;;;5035978;28;20418;-86
2021/11/04 03:17:30;;;;;;;27.03;24.87;;;;;;;;;;5035389;28;20414;-85
2021/11/04 03:19:57;;;;;;;26.63;24.63;;;;;;;;;;5036218;28;20448;-86
2021/11/04 03:22:25;;;;;;;24.57;22.87;;;;;;;;;;5036114;28;20428;-85
2021/11/04 03:24:53;;;;;;;25.83;23.97;;;;;;;;;;5035887;28;20436;-86
2021/11/04 03:27:20;;;;;;;25.50;23.40;;;;;;;;;;5035984;28;20948;-85
2021/11/04 03:29:48;;;;;;;26.53;24.53;;;;;;;;;;5017989;28;20494;-86
2021/11/04 03:32:19;;;;;;;26.00;23.93;;;;;;;;;;5035505;28;20479;-86
2021/11/04 03:34:50;;;;;;;26.53;24.53;;;;;;;;;;5017757;28;21009;-86
2021/11/04 03:37:20;;;;;;;25.73;23.93;;;;;;;;;;5035200;28;20452;-86
2021/11/04 03:39:48;;;;;;;26.87;24.90;;;;;;;;;;5035728;28;20460;-86
2021/11/04 03:42:17;;;;;;;27.90;25.80;;;;;;;;;;5017728;28;20422;-85
2021/11/04 03:44:45;;;;;;;27.40;25.23;;;;;;;;;;5035372;28;20446;-86
2021/11/04 03:47:16;;;;;;;28.40;26.20;;;;;;;;;;5035242;28;20444;-85
2021/11/04 03:49:44;;;;;;;28.67;26.50;;;;;;;;;;5035172;28;20847;-85
2021/11/04 03:52:13;;;;;;;32.30;29.23;;;;;;;;;;5035044;28;20490;-86
2021/11/04 03:54:40;;;;;;;30.40;27.60;;;;;;;;;;5035202;28;20414;-86
2021/11/04 03:57:08;;;;;;;33.10;30.10;;;;;;;;;;5035286;28;20766;-85
2021/11/04 03:59:35;;;;;;;32.37;29.00;;;;;;;;;;5035140;28;20438;-86
2021/11/04 04:02:03;;;;;;;32.43;29.27;;;;;;;;;;5035467;28;20786;-85
2021/11/04 04:04:30;;;;;;;35.37;30.80;;;;;;;;;;5034555;28;20453;-86
2021/11/04 04:06:58;;;;;;;32.73;29.73;;;;;;;;;;5017378;28;20497;-85
2021/11/04 04:09:27;;;;;;;34.27;30.53;;;;;;;;;;5017224;28;20834;-85
2021/11/04 04:11:54;;;;;;;35.77;31.90;;;;;;;;;;5034684;28;20414;-86
2021/11/04 04:14:22;;;;;;;35.87;32.27;;;;;;;;;;5034549;28;20470;-86
2021/11/04 04:16:50;;;;;;;36.03;32.27;;;;;;;;;;5034649;28;20435;-85
2021/11/04 04:19:19;;;;;;;35.40;32.30;;;;;;;;;;5034621;28;20443;-86
2021/11/04 04:21:46;;;;;;;37.93;32.00;;;;;;;;;;5034685;28;20467;-85
2021/11/04 04:24:13;;;;;;;39.67;33.57;;;;;;;;;;5034736;28;20439;-85
2021/11/04 04:26:42;;;;;;;37.53;31.67;;;;;;;;;;5034459;28;20447;-86
2021/11/04 04:29:10;;;;;;;46.70;33.03;;;;;;;;;;5034464;28;20914;-86
2021/11/04 04:31:37;;;;;;;46.00;32.60;;;;;;;;;;5034548;28;20428;-86
2021/11/04 04:34:04;;;;;;;40.80;32.33;;;;;;;;;;5016863;28;20515;-86
2021/11/04 04:36:32;;;;;;;45.33;30.60;;;;;;;;;;5034594;28;20418;-85
2021/11/04 04:38:59;;;;;;;36.30;31.60;;;;;;;;;;5034173;28;20931;-86
2021/11/04 04:41:26;;;;;;;35.87;31.97;;;;;;;;;;5034713;28;20463;-86
2021/11/04 04:43:55;;;;;;;39.67;31.50;;;;;;;;;;5034679;28;20430;-86
2021/11/04 04:46:23;;;;;;;41.10;34.27;;;;;;;;;;5034751;28;20442;-85
2021/11/04 04:48:52;;;;;;;38.30;31.87;;;;;;;;;;5034416;28;20442;-86
2021/11/04 04:51:19;;;;;;;34.93;31.23;;;;;;;;;;5034384;28;20944;-86
2021/11/04 04:53:46;;;;;;;37.97;32.47;;;;;;;;;;5034154;28;20506;-86
2021/11/04 04:56:14;;;;;;;36.07;32.00;;;;;;;;;;5034107;28;20771;-86
2021/11/04 04:58:41;;;;;;;36.83;32.10;;;;;;;;;;5033880;28;20425;-86
2021/11/04 05:01:10;;;;;;;43.33;32.50;;;;;;;;;;5034368;28;20429;-86
2021/11/04 05:03:37;;;;;;;40.07;32.47;;;;;;;;;;5033727;28;20469;-84
2021/11/04 05:06:05;;;;;;;36.80;33.17;;;;;;;;;;5034379;28;20418;-86
2021/11/04 05:08:32;;;;;;;38.03;32.43;;;;;;;;;;5034186;28;20413;-86
2021/11/04 05:10:59;;;;;;;35.60;31.50;;;;;;;;;;5034068;28;20425;-86
2021/11/04 05:13:27;;;;;;;32.47;29.07;;;;;;;;;;5034137;28;20460;-86
2021/11/04 05:15:54;;;;;;;35.47;31.73;;;;;;;;;;5033809;28;20421;-86
2021/11/04 05:18:23;;;;;;;37.43;33.50;;;;;;;;;;5033818;28;20438;-86
2021/11/04 05:20:51;;;;;;;34.83;31.57;;;;;;;;;;5033710;28;20447;-86
2021/11/04 05:23:18;;;;;;;36.03;31.47;;;;;;;;;;5033340;28;20449;-86
2021/11/04 05:25:45;;;;;;;34.93;31.53;;;;;;;;;;5033849;28;20809;-86
2021/11/04 05:28:13;;;;;;;36.13;32.33;;;;;;;;;;5033475;28;20924;-85
2021/11/04 05:30:42;;;;;;;35.60;31.83;;;;;;;;;;5015904;28;20478;-86
2021/11/04 05:33:09;;;;;;;37.47;33.20;;;;;;;;;;5033959;28;20594;-86
2021/11/04 05:35:38;;;;;;;36.57;32.77;;;;;;;;;;5033339;28;20483;-86
2021/11/04 05:38:05;;;;;;;40.13;33.50;;;;;;;;;;5033678;28;20462;-86
2021/11/04 05:40:35;;;;;;;38.60;33.40;;;;;;;;;;5033258;28;20421;-86
2021/11/04 05:43:03;;;;;;;35.47;31.67;;;;;;;;;;5033537;28;20414;-86
2021/11/04 05:45:30;;;;;;;38.60;33.03;;;;;;;;;;5033399;28;20494;-86
2021/11/04 05:47:58;;;;;;;37.90;32.80;;;;;;;;;;5033487;28;20424;-85
2021/11/04 05:50:25;;;;;;;38.07;33.97;;;;;;;;;;5033316;28;20418;-86
2021/11/04 05:52:54;;;;;;;39.97;33.80;;;;;;;;;;5033695;28;20461;-86
2021/11/04 05:55:21;;;;;;;46.97;35.20;;;;;;;;;;5033571;28;20409;-86
2021/11/04 05:57:49;;;;;;;42.37;34.00;;;;;;;;;;5033559;28;20448;-85
2021/11/04 06:00:16;;;;;;;38.07;33.60;;;;;;;;;;5033554;28;20790;-86
2021/11/04 06:02:44;;;;;;;39.90;34.10;;;;;;;;;;5016022;28;20866;-86
2021/11/04 06:05:11;;;;;;;39.00;34.00;;;;;;;;;;5033357;28;20501;-86
2021/11/04 06:07:39;;;;;;;37.87;33.60;;;;;;;;;;5016046;28;20211;-86
2021/11/04 06:10:08;;;;;;;37.97;33.83;;;;;;;;;;5033077;28;20918;-85
2021/11/04 06:12:35;;;;;;;35.60;31.73;;;;;;;;;;5032953;28;20445;-87
2021/11/04 06:15:03;;;;;;;39.67;35.43;;;;;;;;;;5033272;28;20436;-85
2021/11/04 06:17:30;;;;;;;38.00;34.20;;;;;;;;;;5032931;28;20413;-86
2021/11/04 06:19:57;;;;;;;39.33;33.70;;;;;;;;;;5033205;28;20546;-85
2021/11/04 06:22:25;;;;;;;33.87;30.30;;;;;;;;;;5033158;28;20466;-86
2021/11/04 06:24:52;;;;;;;35.40;31.30;;;;;;;;;;5032977;28;20417;-85
2021/11/04 06:27:21;;;;;;;37.73;32.60;;;;;;;;;;5015435;28;20924;-86
2021/11/04 06:29:48;;;;;;;35.08;31.60;;;;;;;;;;5032970;28;20408;-86
2021/11/04 06:32:16;;;;;;;37.60;33.07;;;;;;;;;;5033117;28;20547;-85
2021/11/04 06:34:43;;;;;;;35.43;31.60;;;;;;;;;;5032767;28;20477;-85
2021/11/04 06:37:10;;;;;;;35.50;31.67;;;;;;;;;;5032981;28;20450;-85
2021/11/04 06:39:38;;;;;;;36.73;32.60;;;;;;;;;;5015438;28;20456;-85
2021/11/04 06:42:13;;;;;;;36.80;32.87;;;;;;;;;;5033109;28;20430;-85
2021/11/04 06:44:41;;;;;;;35.33;31.50;;;;;;;;;;5032534;28;20946;-86
2021/11/04 06:47:15;;;;;;;37.13;33.13;;;;;;;;;;5032744;28;20913;-86
2021/11/04 06:49:42;;;;;;;35.77;32.07;;;;;;;;;;5032823;28;20425;-85
2021/11/04 06:52:13;;;;;;;34.23;30.50;;;;;;;;;;5033081;28;20459;-84
2021/11/04 06:54:41;;;;;;;37.27;32.43;;;;;;;;;;5036186;28;20458;-86
2021/11/04 06:57:09;;;;;;;33.93;30.43;;;;;;;;;;5036453;28;20550;-86
2021/11/04 06:59:36;;;;;;;36.70;31.30;;;;;;;;;;5036654;28;20420;-85
2021/11/04 07:02:06;;;;;;;36.67;33.05;;;;;;;;;;5036272;28;20433;-86
2021/11/04 07:04:35;;;;;;;34.10;30.80;;;;;;;;;;5036111;28;20283;-86
2021/11/04 07:07:06;;;;;;;35.07;31.40;;;;;;;;;;5036069;28;20472;-87
2021/11/04 07:09:36;;;;;;;34.63;30.93;;;;;;;;;;5036639;28;20812;-88
2021/11/04 07:12:03;;;;;;;37.87;33.63;;;;;;;;;;5036484;28;20879;-90
2021/11/04 07:14:32;;;;;;;36.00;32.23;;;;;;;;;;5036230;28;20488;-86
2021/11/04 07:16:59;;;;;;;37.00;33.30;;;;;;;;;;5036152;28;20418;-86
2021/11/04 07:19:28;;;;;;;36.33;32.90;;;;;;;;;;5036191;28;20442;-85
2021/11/04 07:22:00;;;;;;;35.30;31.90;;;;;;;;;;5036518;28;20430;-90
2021/11/04 07:24:31;;;;;;;35.95;32.20;;;;;;;;;;5036563;28;20781;-90
2021/11/04 07:27:01;;;;;;;34.40;31.30;;;;;;;;;;5036012;28;20215;-89
2021/11/04 07:29:33;;;;;;;37.78;33.72;;;;;;;;;;5036270;28;20784;-89
2021/11/04 07:32:01;;;;;;;34.50;31.10;;;;;;;;;;5018422;28;20563;-89
2021/11/04 07:34:31;;;;;;;36.40;32.70;;;;;;;;;;5036073;28;20469;-90
2021/11/04 07:36:58;;;;;;;34.60;30.97;;;;;;;;;;5036384;28;20414;-91
2021/11/04 07:39:26;;;;;;;36.80;33.30;;;;;;;;;;5036330;28;20433;-87
2021/11/04 07:41:53;;;;;;;35.80;32.20;;;;;;;;;;5035830;28;20941;-85
2021/11/04 07:44:21;;;;;;;36.10;32.30;;;;;;;;;;5035759;28;20421;-86
2021/11/04 07:46:48;;;;;;;36.47;32.37;;;;;;;;;;5036217;28;20422;-90
2021/11/04 07:49:15;;;;;;;35.13;31.57;;;;;;;;;;5035961;28;20420;-91
2021/11/04 07:51:46;;;;;;;34.67;31.17;;;;;;;;;;5036001;28;20422;-90
2021/11/04 07:54:13;;;;;;;36.90;33.10;;;;;;;;;;5035240;28;20495;-91
2021/11/04 07:56:41;;;;;;;33.93;30.77;;;;;;;;;;5035829;28;20425;-91
2021/11/04 07:59:08;;;;;;;37.53;33.63;;;;;;;;;;5035749;28;20813;-91
2021/11/04 08:01:35;;;;;;;40.13;33.73;;;;;;;;;;5035677;28;20460;-90
2021/11/04 08:04:03;;;;;;;38.70;30.30;;;;;;;;;;5035106;28;20490;-90
2021/11/04 08:06:30;;;;;;;35.30;31.80;;;;;;;;;;5036144;28;20418;-90
2021/11/04 08:08:59;;;;;;;42.67;35.00;;;;;;;;;;5035446;28;20437;-90
2021/11/04 08:11:26;;;;;;;38.53;34.43;;;;;;;;;;5035453;28;20442;-91
2021/11/04 08:13:54;;;;;;;39.23;34.33;;;;;;;;;;5035312;28;20458;-91
2021/11/04 08:16:21;;;;;;;41.07;32.70;;;;;;;;;;5035835;28;20522;-91
2021/11/04 08:18:49;;;;;;;40.37;35.83;;;;;;;;;;5034993;28;20930;-91
2021/11/04 08:21:16;;;;;;;47.70;36.33;;;;;;;;;;5035384;28;20510;-91
2021/11/04 08:23:43;;;;;;;48.17;38.03;;;;;;;;;;5035250;28;20774;-91
2021/11/04 08:26:15;;;;;;;47.30;37.40;;;;;;;;;;5035924;28;20450;-91
2021/11/04 08:28:42;;;;;;;52.13;38.70;;;;;;;;;;5034918;28;20519;-92
2021/11/04 08:31:10;;;;;;;43.37;37.43;;;;;;;;;;5035272;28;20498;-92
2021/11/04 08:33:37;;;;;;;63.67;38.63;;;;;;;;;;5035321;28;20539;-90
2021/11/04 08:36:05;;;;;;;45.07;36.00;;;;;;;;;;5034993;28;20459;-90
2021/11/04 08:38:33;;;;;;;53.33;40.20;;;;;;;;;;5036251;28;20429;-91
2021/11/04 08:41:01;;;;;;;49.10;38.10;;;;;;;;;;5018219;28;20524;-90
2021/11/04 08:43:29;;;;;;;46.20;38.43;;;;;;;;;;5034955;28;20435;-90
2021/11/04 08:45:57;;;;;;;49.27;38.67;;;;;;;;;;5034765;28;20454;-89
2021/11/04 08:48:24;;;;;;;48.23;37.33;;;;;;;;;;5016259;28;20439;-86
2021/11/04 08:50:52;;;;;;;49.80;38.30;;;;;;;;;;5035145;28;20451;-92
2021/11/04 08:53:20;;;;;;;45.63;36.00;;;;;;;;;;5034640;28;20505;-93
2021/11/04 08:55:49;;;;;;;41.40;36.23;;;;;;;;;;5034411;28;20452;-93
2021/11/04 08:58:18;;;;;;;38.97;35.07;;;;;;;;;;5017378;28;20444;-93
2021/11/04 09:00:48;;;;;;;37.50;33.50;;;;;;;;;;5017473;28;20985;-93
2021/11/04 09:03:20;;;;;;;43.20;36.27;;;;;;;;;;5034402;28;20231;-93
2021/11/04 09:05:48;;;;;;;36.63;32.90;;;;;;;;;;5035165;28;20432;-94
2021/11/04 09:08:15;;;;;;;38.07;34.17;;;;;;;;;;5034837;28;20407;-95
2021/11/04 09:10:43;;;;;;;40.67;36.53;;;;;;;;;;5034750;28;20453;-94
2021/11/04 09:13:10;;;;;;;35.87;32.07;;;;;;;;;;5036116;28;20426;-96
2021/11/04 09:15:39;;;;;;;42.23;38.03;;;;;;;;;;5039331;28;20447;-95
2021/11/04 09:18:08;;;;;;;36.20;32.70;;;;;;;;;;5016707;28;20467;-93
2021/11/04 09:20:36;;;;;;;37.60;33.93;;;;;;;;;;5034412;28;20956;-95
2021/11/04 09:23:03;;;;;;;34.27;31.30;;;;;;;;;;5034144;28;20421;-95
2021/11/04 09:25:31;;;;;;;36.40;32.70;;;;;;;;;;5034192;28;20439;-95
2021/11/04 09:27:58;;;;;;;37.87;34.00;;;;;;;;;;5034094;28;20449;-94
2021/11/04 09:30:26;;;;;;;34.47;31.27;;;;;;;;;;5034158;28;20446;-94
2021/11/04 09:32:54;;;;;;;32.53;29.33;;;;;;;;;;5017815;28;20925;-95
2021/11/04 09:35:24;;;;;;;34.87;31.57;;;;;;;;;;5016849;28;20242;-94
2021/11/04 09:37:51;;;;;;;34.97;31.63;;;;;;;;;;5033546;28;20518;-94
2021/11/04 09:40:20;;;;;;;32.87;29.83;;;;;;;;;;5034200;28;20448;-94
2021/11/04 09:42:49;;;;;;;31.20;28.33;;;;;;;;;;5033950;28;20435;-86
2021/11/04 09:45:16;;;;;;;33.55;30.60;;;;;;;;;;5034071;28;20767;-86
2021/11/04 09:47:43;;;;;;;31.00;28.50;;;;;;;;;;5033600;28;20280;-91
2021/11/04 09:50:12;;;;;;;32.40;29.40;;;;;;;;;;5034243;28;20883;-95
2021/11/04 09:52:42;;;;;;;33.53;30.23;;;;;;;;;;5034790;28;20858;-96
2021/11/04 09:55:10;;;;;;;32.65;29.65;;;;;;;;;;5034093;28;20453;-96
2021/11/04 09:57:41;;;;;;;33.70;30.60;;;;;;;;;;5034518;28;20271;-96
2021/11/04 10:00:09;;;;;;;34.87;31.70;;;;;;;;;;5036473;28;20423;-96
2021/11/04 10:02:39;;;;;;;32.88;29.90;;;;;;;;;;5043647;28;20487;-96
2021/11/04 10:05:07;;;;;;;37.27;33.67;;;;;;;;;;5034292;28;20212;-93
2021/11/04 10:07:45;;;;;;;36.03;32.27;;;;;;;;;;5017842;28;20482;-96
2021/11/04 10:10:13;;;;;;;36.67;33.20;;;;;;;;;;5703402;22;20425;-93
2021/11/04 10:46:59;;;;;;;36.23;32.40;;;;;;;;;;5317072;22;20283;-96
2021/11/04 10:49:27;;;;;;;35.53;32.17;;;;;;;;;;5028456;28;20449;-86
2021/11/04 11:26:43;;;;;;;33.90;30.50;;;;;;;;;;5067568;22;20243;-96
2021/11/04 11:29:12;;;;;;;33.73;30.47;;;;;;;;;;5024111;28;20424;-96
2021/11/04 11:31:48;;;;;;;31.73;28.93;;;;;;;;;;5030435;28;20524;-96
2021/11/04 11:34:21;;;;;;;33.15;29.98;;;;;;;;;;5019438;28;20485;-96
2021/11/04 11:37:21;;;;;;;32.60;29.67;;;;;;;;;;5036559;28;20223;-95
2021/11/04 11:39:49;;;;;;;31.50;28.67;;;;;;;;;;5029576;28;20205;-95
2021/11/04 11:42:22;;;;;;;34.03;30.93;;;;;;;;;;5036632;28;20802;-95
2021/11/04 11:45:01;;;;;;;35.50;32.40;;;;;;;;;;5036492;28;20446;-95
2021/11/04 11:47:39;;;;;;;36.07;32.83;;;;;;;;;;5033210;28;20426;-94
2021/11/04 11:50:27;;;;;;;34.05;31.15;;;;;;;;;;5036293;28;20410;-92
2021/11/04 11:52:55;;;;;;;33.10;30.20;;;;;;;;;;5028995;28;20639;-93
2021/11/04 11:55:25;;;;;;;33.53;30.57;;;;;;;;;;5035939;28;20226;-91
2021/11/04 11:58:10;;;;;;;31.20;28.70;;;;;;;;;;5035972;28;20449;-96
2021/11/04 12:00:57;;;;;;;30.43;27.73;;;;;;;;;;5037618;28;20462;-96
2021/11/04 12:08:37;;;;;;;26.20;24.20;;;;;;;;;;5923032;22;20493;-96
2021/11/04 12:11:05;;;;;;;27.47;25.47;;;;;;;;;;5032321;28;20443;-96
2021/11/04 12:13:34;;;;;;;28.13;26.23;;;;;;;;;;5055776;28;20469;-96
2021/11/04 12:16:11;;;;;;;25.67;23.98;;;;;;;;;;5041396;28;20473;-96
2021/11/04 12:18:47;;;;;;;24.87;23.13;;;;;;;;;;5035874;28;20700;-94
2021/11/04 12:21:19;;;;;;;25.00;23.20;;;;;;;;;;5035800;28;20901;-96
2021/11/04 12:23:46;;;;;;;24.30;22.70;;;;;;;;;;5022013;28;20439;-96
2021/11/04 12:26:15;;;;;;;24.00;22.30;;;;;;;;;;5038533;28;20458;-96
2021/11/04 12:28:43;;;;;;;24.42;22.65;;;;;;;;;;5038024;28;20279;-96
2021/11/04 12:31:15;;;;;;;23.63;22.10;;;;;;;;;;5022505;28;20218;-91
2021/11/04 12:33:42;;;;;;;25.40;23.80;;;;;;;;;;5040125;28;20501;-86
2021/11/04 12:36:10;;;;;;;25.60;23.60;;;;;;;;;;5047442;28;20975;-96
2021/11/04 12:38:48;;;;;;;24.77;23.00;;;;;;;;;;5737867;22;20476;-96
2021/11/04 12:52:00;;;;;;;24.60;23.00;;;;;;;;;;5740717;22;20235;-96
2021/11/04 12:54:33;;;;;;;26.83;24.83;;;;;;;;;;5032001;28;20495;-96
2021/11/04 12:57:02;;;;;;;26.35;24.45;;;;;;;;;;5028138;28;20192;-96
2021/11/04 12:59:31;;;;;;;26.40;24.63;;;;;;;;;;5039096;28;20200;-91
2021/11/04 13:02:07;;;;;;;27.50;25.57;;;;;;;;;;5645548;22;20243;-96
2021/11/04 13:04:37;;;;;;;28.60;26.50;;;;;;;;;;5631143;23;20503;-96
2021/11/04 13:07:06;;;;;;;29.43;27.33;;;;;;;;;;5028651;28;20499;-96
2021/11/04 13:09:43;;;;;;;29.23;26.83;;;;;;;;;;5026082;28;20485;-96
2021/11/04 13:12:12;;;;;;;26.67;24.83;;;;;;;;;;5031834;28;20420;-96
2021/11/04 13:14:52;;;;;;;28.37;26.37;;;;;;;;;;5027620;28;20480;-96
2021/11/04 13:17:20;;;;;;;27.55;25.17;;;;;;;;;;5032175;28;20438;-96
2021/11/04 13:20:06;;;;;;;27.57;25.53;;;;;;;;;;5016855;28;20219;-96
2021/11/04 13:22:34;;;;;;;27.60;25.60;;;;;;;;;;5016379;28;20820;-96
2021/11/04 13:25:05;;;;;;;28.20;26.00;;;;;;;;;;5027069;28;20477;-96
2021/11/04 13:27:32;;;;;;;27.45;25.17;;;;;;;;;;5025635;28;20436;-96
2021/11/04 13:30:00;;;;;;;27.40;25.50;;;;;;;;;;5028439;28;20186;-96
2021/11/04 13:32:30;;;;;;;28.17;25.90;;;;;;;;;;5028041;28;20471;-96
2021/11/04 13:34:58;;;;;;;27.83;25.87;;;;;;;;;;5020932;28;20570;-96
2021/11/04 13:37:27;;;;;;;30.53;28.13;;;;;;;;;;5017991;28;20475;-96
2021/11/04 13:39:55;;;;;;;28.97;26.77;;;;;;;;;;5030677;28;20435;-96
2021/11/04 13:42:25;;;;;;;30.07;27.77;;;;;;;;;;5026483;28;20469;-96
2021/11/04 13:45:05;;;;;;;30.40;27.90;;;;;;;;;;5025476;28;20470;-96
2021/11/04 13:47:33;;;;;;;32.97;29.67;;;;;;;;;;5022518;28;20444;-96
2021/11/04 13:50:01;;;;;;;31.53;28.90;;;;;;;;;;5024109;28;20519;-96
2021/11/04 13:52:28;;;;;;;31.55;28.83;;;;;;;;;;5018178;28;20479;-96
2021/11/04 13:54:56;;;;;;;33.53;30.33;;;;;;;;;;5015441;28;20225;-96
2021/11/04 13:57:25;;;;;;;32.60;29.70;;;;;;;;;;5017284;28;20433;-87
2021/11/04 13:59:56;;;;;;;32.78;29.60;;;;;;;;;;5014849;28;20459;-95
2021/11/04 14:02:24;;;;;;;31.33;28.57;;;;;;;;;;5018425;28;20220;-96
2021/11/04 14:04:52;;;;;;;32.10;29.20;;;;;;;;;;5019383;28;20804;-96
2021/11/04 14:07:27;;;;;;;34.97;31.67;;;;;;;;;;5018512;28;20193;-96
2021/11/04 14:09:58;;;;;;;31.23;28.17;;;;;;;;;;5025018;28;20476;-96
2021/11/04 14:12:31;;;;;;;33.88;30.65;;;;;;;;;;5030753;28;20196;-96
2021/11/04 14:14:59;;;;;;;33.17;29.87;;;;;;;;;;5036948;23;20204;-96
2021/11/04 14:17:27;;;;;;;34.43;31.33;;;;;;;;;;5035646;28;20770;-96
2021/11/04 14:19:56;;;;;;;33.60;30.40;;;;;;;;;;5031642;28;20403;-96
2021/11/04 14:22:24;;;;;;;36.37;32.47;;;;;;;;;;5021005;28;20435;-93
2021/11/04 14:24:51;;;;;;;38.17;34.20;;;;;;;;;;5018661;28;20424;-96
2021/11/04 14:27:19;;;;;;;36.83;33.30;;;;;;;;;;5016719;28;20413;-92
2021/11/04 14:29:47;;;;;;;37.28;33.65;;;;;;;;;;5016992;28;20454;-92
2021/11/04 14:32:15;;;;;;;34.80;30.90;;;;;;;;;;5016947;28;20220;-94
2021/11/04 14:34:43;;;;;;;44.28;35.92;;;;;;;;;;5016965;28;20201;-94
2021/11/04 14:37:12;;;;;;;40.70;36.25;;;;;;;;;;5017910;28;20209;-93
2021/11/04 14:39:40;;;;;;;45.33;37.58;;;;;;;;;;5016483;28;20197;-94
2021/11/04 14:42:07;;;;;;;43.67;37.50;;;;;;;;;;5018030;28;20200;-93
2021/11/04 14:44:35;;;;;;;48.30;37.80;;;;;;;;;;5017548;28;20447;-93
2021/11/04 14:47:04;;;;;;;45.03;38.35;;;;;;;;;;5017418;28;20434;-94
2021/11/04 14:49:31;;;;;;;46.97;38.42;;;;;;;;;;5017336;28;20206;-94
2021/11/04 14:51:58;;;;;;;43.83;38.60;;;;;;;;;;5017494;28;20228;-94
2021/11/04 14:54:26;;;;;;;45.80;37.05;;;;;;;;;;5017046;28;20706;-94
2021/11/04 14:56:53;;;;;;;44.65;37.95;;;;;;;;;;5016976;28;20242;-93
2021/11/04 14:59:21;;;;;;;45.70;38.35;;;;;;;;;;5017898;28;20212;-93
2021/11/04 15:01:48;;;;;;;45.25;40.00;;;;;;;;;;5016765;28;20197;-91
2021/11/04 15:04:17;;;;;;;46.00;38.63;;;;;;;;;;5016230;28;20200;-90
2021/11/04 15:06:44;;;;;;;47.80;40.60;;;;;;;;;;5017401;28;20197;-93
2021/11/04 15:09:12;;;;;;;43.20;38.60;;;;;;;;;;5017219;28;20208;-92
2021/11/04 15:11:39;;;;;;;48.17;39.97;;;;;;;;;;5016658;28;20501;-92
2021/11/04 15:14:06;;;;;;;43.93;37.57;;;;;;;;;;5015672;28;20216;-93
2021/11/04 15:16:34;;;;;;;43.53;37.33;;;;;;;;;;5016723;28;20499;-93
2021/11/04 15:19:02;;;;;;;40.80;36.00;;;;;;;;;;5016489;28;20462;-93
2021/11/04 15:21:31;;;;;;;39.17;35.25;;;;;;;;;;5017142;28;20462;-92
2021/11/04 15:23:59;;;;;;;41.35;37.17;;;;;;;;;;5015531;28;20208;-92
2021/11/04 15:26:26;;;;;;;36.97;32.43;;;;;;;;;;5016894;28;20634;-92
2021/11/04 15:28:53;;;;;;;39.03;35.13;;;;;;;;;;5015895;28;20433;-92
2021/11/04 15:31:22;;;;;;;36.58;33.08;;;;;;;;;;5016612;28;20960;-92
2021/11/04 15:33:53;;;;;;;39.00;35.20;;;;;;;;;;5017125;28;20198;-92
2021/11/04 15:36:21;;;;;;;40.73;36.50;;;;;;;;;;5017611;28;20301;-93
2021/11/04 15:38:50;;;;;;;38.53;34.65;;;;;;;;;;5016715;28;20813;-94
2021/11/04 15:41:18;;;;;;;37.50;34.00;;;;;;;;;;5016512;28;20623;-94
2021/11/04 15:43:45;;;;;;;37.35;33.55;;;;;;;;;;5016885;28;20435;-94
2021/11/04 15:46:13;;;;;;;41.97;37.53;;;;;;;;;;5017364;28;20192;-95
2021/11/04 15:48:41;;;;;;;36.90;33.40;;;;;;;;;;5016609;28;20418;-93
2021/11/04 15:51:08;;;;;;;39.07;35.07;;;;;;;;;;5017107;28;20933;-93